Time;durP1;ratioP1;P1;durP2;ratioP2;P2;SDS_P1;SDS_P2;PMS_P1;PMS_P2;Temp;Humidity;BMP_temperature;BMP_pressure;BME280_temperature;BME280_humidity;BME280_pressure;Samples;Min_cycle;Max_cycle;Signal;HPM_P1;HPM_P2
2022/05/10 00:02:12;;;;;;;9.30;7.70;;;13.30;99.90;;;12.98;100.00;97791.16;5013729;28;20033;-53
2022/05/10 00:04:40;;;;;;;9.45;7.65;;;13.30;99.90;;;12.93;100.00;97793.97;5012078;28;20710;-50
2022/05/10 00:07:05;;;;;;;10.43;7.78;;;13.20;99.90;;;12.91;100.00;97787.88;5013529;28;20029;-54
2022/05/10 00:09:31;;;;;;;8.20;7.30;;;13.20;99.90;;;12.89;100.00;97786.25;5017513;28;20052;-48
2022/05/10 00:11:58;;;;;;;8.00;7.18;;;13.20;99.90;;;12.84;100.00;97782.91;5014091;28;20033;-52
2022/05/10 00:14:27;;;;;;;10.35;7.22;;;13.10;99.90;;;12.80;100.00;97784.81;5014507;28;20038;-53
2022/05/10 00:16:53;;;;;;;8.70;7.00;;;13.10;99.90;;;12.75;100.00;97782.34;5015698;28;20038;-51
2022/05/10 00:19:22;;;;;;;8.43;6.75;;;13.10;99.90;;;12.73;100.00;97781.53;4999120;28;20107;-51
2022/05/10 00:21:49;;;;;;;9.75;7.40;;;13.00;99.90;;;12.69;100.00;97782.59;5012672;28;20046;-51
2022/05/10 00:24:15;;;;;;;7.95;6.60;;;13.00;99.90;;;12.71;100.00;97782.53;5014970;28;20025;-52
2022/05/10 00:26:41;;;;;;;7.40;6.63;;;13.00;99.90;;;12.69;100.00;97785.25;5016405;28;20018;-49
2022/05/10 00:29:07;;;;;;;7.97;7.18;;;13.00;99.90;;;12.66;100.00;97780.06;4998327;28;20410;-48
2022/05/10 00:31:34;;;;;;;7.55;6.72;;;12.90;99.90;;;12.60;100.00;97786.47;5015149;28;20037;-50
2022/05/10 00:34:01;;;;;;;8.70;6.55;;;12.90;99.90;;;12.51;100.00;97768.31;5015932;28;20029;-51
2022/05/10 00:36:28;;;;;;;9.00;7.50;;;12.80;99.90;;;12.52;100.00;97777.94;5017198;28;20037;-49
2022/05/10 00:38:54;;;;;;;9.27;7.63;;;12.80;99.90;;;12.48;100.00;97770.19;4998021;28;20036;-50
2022/05/10 00:41:49;;;;;;;9.27;7.40;;;12.70;99.90;;;12.44;100.00;97782.69;5010519;28;20295;-53
2022/05/10 00:44:26;;;;;;;7.82;7.03;;;12.70;99.90;;;12.41;100.00;97777.50;5013871;28;20154;-52
2022/05/10 00:47:18;;;;;;;9.60;7.93;;;12.70;99.90;;;12.37;100.00;97779.41;5019747;28;20505;-51
2022/05/10 00:50:09;;;;;;;8.15;7.35;;;12.60;99.90;;;12.33;100.00;97772.50;4997580;28;20592;-49
2022/05/10 00:53:01;;;;;;;7.80;7.00;;;12.60;99.90;;;12.31;100.00;97777.00;4995507;28;20037;-52
2022/05/10 00:55:37;;;;;;;9.82;7.47;;;12.60;99.90;;;12.30;100.00;97769.13;5015849;28;20044;-51
2022/05/10 00:58:33;;;;;;;9.43;7.82;;;12.60;99.90;;;12.27;100.00;97767.44;5017731;28;20037;-52
2022/05/10 01:01:01;;;;;;;9.13;7.55;;;12.60;99.90;;;12.30;100.00;97763.84;5009954;28;20033;-49
2022/05/10 01:03:38;;;;;;;8.63;7.32;;;12.60;99.90;;;12.34;100.00;97771.56;5003819;28;20034;-52
2022/05/10 01:06:11;;;;;;;10.38;8.27;;;12.60;99.90;;;12.36;100.00;97767.13;5015621;28;20029;-49
2022/05/10 01:08:41;;;;;;;8.50;7.65;;;12.60;99.90;;;12.37;100.00;97763.53;5010089;28;20024;-50
2022/05/10 01:11:18;;;;;;;10.07;7.57;;;12.70;99.90;;;12.36;100.00;97764.47;5013307;28;20036;-48
2022/05/10 01:13:48;;;;;;;8.68;6.90;;;12.60;99.90;;;12.35;100.00;97759.25;4998328;28;20075;-48
2022/05/10 01:16:18;;;;;;;8.55;7.47;;;12.60;99.90;;;12.30;100.00;97755.91;5007208;28;20036;-49
2022/05/10 01:18:44;;;;;;;8.20;7.40;;;12.60;99.90;;;12.27;100.00;97751.56;4995837;28;20481;-48
2022/05/10 01:21:34;;;;;;;8.88;7.45;;;12.50;99.90;;;12.25;100.00;97750.78;5014967;28;20037;-47
2022/05/10 01:24:46;;;;;;;8.70;7.88;;;12.50;99.90;;;12.22;100.00;97748.25;5012433;28;20459;-48
2022/05/10 01:27:31;;;;;;;9.10;7.68;;;12.50;99.90;;;12.23;100.00;97750.84;5013470;28;20611;-47
2022/05/10 01:30:20;;;;;;;10.82;7.97;;;12.50;99.90;;;12.26;100.00;97741.06;5013872;28;20040;-49
2022/05/10 01:35:52;;;;;;;9.52;7.47;;;12.50;99.90;;;12.21;100.00;97735.97;5012394;28;20127;-52
2022/05/10 01:38:25;;;;;;;8.70;7.80;;;12.50;99.90;;;12.19;100.00;97738.66;5017509;28;20033;-49
2022/05/10 01:40:57;;;;;;;9.63;7.78;;;12.50;99.90;;;12.15;100.00;97734.41;5016504;28;20037;-51
2022/05/10 01:43:46;;;;;;;9.10;7.88;;;12.40;99.90;;;12.10;100.00;97728.44;5013213;28;20033;-50
2022/05/10 01:46:24;;;;;;;9.27;7.90;;;12.40;99.90;;;12.06;100.00;97729.47;4990427;28;20327;-53
2022/05/10 01:48:55;;;;;;;10.07;7.72;;;12.40;99.90;;;12.05;100.00;97726.88;5000727;28;20108;-52
2022/05/10 01:51:35;;;;;;;9.10;7.53;;;12.30;99.90;;;12.01;100.00;97718.22;5015522;28;20392;-52
2022/05/10 01:54:01;;;;;;;9.38;7.70;;;12.30;99.90;;;11.98;100.00;97716.53;4996576;28;20487;-49
2022/05/10 01:56:29;;;;;;;9.88;8.23;;;12.30;99.90;;;11.96;100.00;97712.22;5014819;28;20100;-49
2022/05/10 01:58:56;;;;;;;10.15;8.25;;;12.20;99.90;;;11.94;100.00;97717.56;4997158;28;20683;-48
2022/05/10 02:01:32;;;;;;;10.07;8.32;;;12.20;99.90;;;11.91;100.00;97717.69;5012504;28;20033;-52
2022/05/10 02:04:09;;;;;;;8.30;7.43;;;12.20;99.90;;;11.86;100.00;97714.31;4996624;28;20544;-50
2022/05/10 02:06:49;;;;;;;8.90;8.00;;;12.20;99.90;;;11.82;100.00;97715.34;4998694;28;20036;-50
2022/05/10 02:09:36;;;;;;;11.18;8.38;;;12.10;99.90;;;11.80;100.00;97711.91;5015316;28;20084;-52
2022/05/10 02:12:34;;;;;;;11.25;8.43;;;12.10;99.90;;;11.76;100.00;97708.50;5004689;28;20033;-49
2022/05/10 02:15:13;;;;;;;10.80;8.48;;;12.10;99.90;;;11.76;100.00;97721.72;5009386;28;20316;-53
2022/05/10 02:18:24;;;;;;;9.43;8.15;;;12.10;99.90;;;11.70;100.00;97708.75;5009644;28;20037;-52
2022/05/10 02:21:20;;;;;;;9.02;8.13;;;12.00;99.90;;;11.59;100.00;97688.00;5013371;28;20037;-47
2022/05/10 02:24:01;;;;;;;9.63;8.30;;;12.00;99.90;;;11.72;100.00;97713.94;4993168;28;20093;-49
2022/05/10 02:26:50;;;;;;;9.70;8.43;;;12.00;99.90;;;11.70;100.00;97718.44;4996283;28;20030;-51
2022/05/10 02:29:26;;;;;;;9.52;8.20;;;12.00;99.90;;;11.67;100.00;97715.94;5014143;28;20112;-51
2022/05/10 02:34:45;;;;;;;9.70;8.60;;;12.00;99.90;;;11.64;100.00;97712.44;5001462;28;20565;-51
2022/05/10 02:37:13;;;;;;;10.55;8.25;;;12.00;99.90;;;11.61;100.00;97709.06;4998708;28;20812;-51
2022/05/10 02:39:39;;;;;;;10.00;8.77;;;11.90;99.90;;;11.58;100.00;97703.91;5011372;28;20146;-48
2022/05/10 02:42:09;;;;;;;10.70;8.68;;;11.90;99.90;;;11.57;100.00;97708.31;5013793;28;20069;-51
2022/05/10 02:44:37;;;;;;;9.55;8.55;;;11.90;99.90;;;11.55;100.00;97704.00;5015012;28;20036;-52
2022/05/10 02:47:06;;;;;;;9.23;8.32;;;11.80;99.90;;;11.54;100.00;97703.16;5010427;28;20050;-49
2022/05/10 02:49:33;;;;;;;11.98;8.77;;;11.80;99.90;;;11.51;100.00;97703.25;5017416;28;20030;-50
2022/05/10 02:51:59;;;;;;;12.05;8.88;;;11.80;99.90;;;11.50;100.00;97705.94;5013543;28;20030;-51
2022/05/10 02:54:24;;;;;;;10.98;9.32;;;11.80;99.90;;;11.49;100.00;97709.53;5015307;28;20044;-51
2022/05/10 02:56:51;;;;;;;9.82;8.82;;;11.80;99.90;;;11.46;100.00;97705.19;5018527;28;20171;-53
2022/05/10 02:59:26;;;;;;;9.88;8.88;;;11.80;99.90;;;11.42;100.00;97704.44;5002344;28;20034;-50
2022/05/10 03:02:09;;;;;;;10.68;9.07;;;11.70;99.90;;;11.43;100.00;97700.91;5018824;28;20025;-50
2022/05/10 03:04:40;;;;;;;9.80;8.68;;;11.70;99.90;;;11.37;100.00;97692.31;5013931;28;20477;-53
2022/05/10 03:07:08;;;;;;;11.23;9.27;;;11.70;99.90;;;11.40;100.00;97697.50;5016691;28;20508;-51
2022/05/10 03:09:34;;;;;;;10.80;8.30;;;11.70;99.90;;;11.37;100.00;97711.66;5012106;28;20029;-52
2022/05/10 03:12:04;;;;;;;9.80;8.80;;;11.70;99.90;;;11.36;100.00;97711.72;5017433;28;20068;-51
2022/05/10 03:14:30;;;;;;;10.32;9.13;;;11.70;99.90;;;11.35;100.00;97708.22;5014052;28;20042;-52
2022/05/10 03:16:56;;;;;;;9.98;8.90;;;11.70;99.90;;;11.34;100.00;97706.50;5017917;28;20091;-52
2022/05/10 03:19:22;;;;;;;9.80;8.50;;;11.70;99.90;;;11.34;100.00;97706.50;5017947;28;20566;-52
2022/05/10 03:21:47;;;;;;;10.57;8.40;;;11.70;99.90;;;11.31;100.00;97695.19;5019191;28;20041;-51
2022/05/10 03:24:13;;;;;;;10.75;8.68;;;11.60;99.90;;;11.27;100.00;97690.00;5016051;28;20089;-52
2022/05/10 03:26:45;;;;;;;11.68;8.60;;;11.60;99.90;;;11.26;100.00;97693.56;5018465;28;20113;-49
2022/05/10 03:29:10;;;;;;;12.30;8.90;;;11.60;99.90;;;11.25;100.00;97691.84;5039947;23;20458;-46
2022/05/10 03:31:36;;;;;;;11.25;9.05;;;11.60;99.90;;;11.20;100.00;97687.66;5031877;28;20046;-45
2022/05/10 03:36:47;;;;;;;10.18;9.13;;;11.60;99.90;;;11.29;100.00;97700.53;5034012;28;20512;-46
2022/05/10 03:39:12;;;;;;;10.43;8.40;;;11.60;99.90;;;11.26;100.00;97701.47;5037122;28;20123;-45
2022/05/10 03:41:38;;;;;;;10.60;8.38;;;11.60;99.90;;;11.25;100.00;97697.13;5035047;28;20108;-49
2022/05/10 03:44:04;;;;;;;9.55;8.55;;;11.60;99.90;;;11.23;100.00;97698.97;5028182;28;20033;-45
2022/05/10 03:46:30;;;;;;;9.55;8.52;;;11.50;99.90;;;11.17;100.00;97688.59;5037400;28;20024;-48
2022/05/10 03:48:56;;;;;;;10.50;8.60;;;11.50;99.90;;;11.19;100.00;97696.47;5037904;28;20410;-48
2022/05/10 03:51:22;;;;;;;10.63;8.57;;;11.50;99.90;;;11.17;100.00;97699.16;5034580;28;20029;-46
2022/05/10 03:53:48;;;;;;;10.35;9.00;;;11.50;99.90;;;11.16;100.00;97691.28;5033434;28;20509;-47
2022/05/10 03:56:14;;;;;;;11.95;9.57;;;11.50;99.90;;;11.14;100.00;97699.25;5034426;28;20052;-44
2022/05/10 03:58:40;;;;;;;10.65;9.55;;;11.50;99.90;;;11.13;100.00;97700.19;5036676;28;20033;-47
2022/05/10 04:01:07;;;;;;;11.18;9.48;;;11.50;99.90;;;11.14;100.00;97693.97;5038026;28;20048;-48
2022/05/10 04:03:34;;;;;;;12.57;9.77;;;11.50;99.90;;;11.13;100.00;97694.06;5037259;28;20168;-47
2022/05/10 04:06:00;;;;;;;10.60;9.43;;;11.50;99.90;;;11.14;100.00;97698.41;5032271;28;20115;-48
2022/05/10 04:08:27;;;;;;;14.27;10.00;;;11.50;99.90;;;11.14;100.00;97688.69;5034985;28;20037;-46
2022/05/10 04:10:53;;;;;;;12.10;10.25;;;11.50;99.90;;;11.16;100.00;97696.56;5028938;28;20049;-47
2022/05/10 04:13:19;;;;;;;11.93;9.93;;;11.50;99.90;;;11.18;100.00;97706.19;5035328;28;23233;-46
2022/05/10 04:15:45;;;;;;;11.98;10.13;;;11.50;99.90;;;11.21;100.00;97697.28;5028460;28;20053;-47
2022/05/10 04:18:11;;;;;;;14.80;10.60;;;11.50;99.90;;;11.09;100.00;97672.19;5017169;28;20063;-48
2022/05/10 04:20:37;;;;;;;11.45;10.25;;;11.50;99.90;;;11.28;100.00;97688.22;5034570;28;20109;-46
2022/05/10 04:23:02;;;;;;;13.20;10.27;;;11.60;99.90;;;11.33;100.00;97683.66;5035936;28;20456;-48
2022/05/10 04:25:28;;;;;;;11.40;10.20;;;11.70;99.90;;;11.39;100.00;97686.06;5034876;28;20473;-47
2022/05/10 04:27:55;;;;;;;11.57;10.27;;;11.70;99.90;;;11.45;100.00;97685.00;5036515;28;20029;-46
2022/05/10 04:30:22;;;;;;;11.07;9.98;;;11.80;99.90;;;11.49;100.00;97683.97;5032939;28;20036;-49
2022/05/10 04:32:49;;;;;;;13.70;9.73;;;11.90;99.90;;;11.61;100.00;97691.44;5031481;28;21163;-46
2022/05/10 04:35:15;;;;;;;12.20;10.88;;;12.00;99.90;;;11.71;100.00;97693.75;5033318;28;20115;-47
2022/05/10 04:37:40;;;;;;;13.98;11.32;;;12.00;99.90;;;11.80;100.00;97696.91;5035364;28;20082;-46
2022/05/10 04:42:52;;;;;;;12.00;10.63;;;12.20;99.90;;;12.01;100.00;97697.06;5036082;28;20096;-46
2022/05/10 04:45:19;;;;;;;11.70;9.75;;;12.30;99.90;;;12.12;100.00;97699.31;5032183;28;20037;-46
2022/05/10 04:47:45;;;;;;;11.85;10.60;;;12.40;99.90;;;12.22;100.00;97690.94;5008131;28;20449;-48
2022/05/10 04:50:11;;;;;;;11.80;9.20;;;12.50;99.90;;;12.33;100.00;97698.47;5032864;28;20033;-46
2022/05/10 04:52:38;;;;;;;11.90;10.13;;;12.60;99.90;;;12.42;100.00;97691.94;5035523;28;20134;-48
2022/05/10 04:55:08;;;;;;;12.32;9.57;;;12.80;99.90;;;12.59;100.00;97701.84;5030127;28;20138;-45
2022/05/10 04:57:35;;;;;;;13.30;10.13;;;12.90;99.90;;;12.70;100.00;97699.63;5033265;28;20288;-48
2022/05/10 05:00:03;;;;;;;11.82;9.68;;;13.00;99.90;;;12.82;100.00;97695.63;5030393;28;20737;-48
2022/05/10 05:02:29;;;;;;;11.13;9.90;;;13.10;99.90;;;12.94;100.00;97694.28;5028302;28;20098;-45
2022/05/10 05:04:54;;;;;;;11.80;9.60;;;13.20;99.90;;;13.07;100.00;97700.75;5027653;28;20579;-46
2022/05/10 05:07:20;;;;;;;12.35;9.90;;;13.40;99.90;;;13.17;100.00;97701.22;5030597;28;20076;-46
2022/05/10 05:09:46;;;;;;;10.93;9.60;;;13.50;99.90;;;13.29;100.00;97706.00;5035086;28;20051;-47
2022/05/10 05:12:11;;;;;;;11.82;9.55;;;13.60;99.90;;;13.42;100.00;97702.84;5017502;28;20040;-49
2022/05/10 05:14:38;;;;;;;10.82;9.63;;;13.70;99.90;;;13.51;100.00;97702.44;5020275;28;20639;-47
2022/05/10 05:17:04;;;;;;;11.90;9.05;;;13.80;99.90;;;13.60;100.00;97707.31;5029626;28;20551;-47
2022/05/10 05:19:29;;;;;;;11.98;9.48;;;13.90;99.90;;;13.70;100.00;97713.09;5020530;28;20519;-48
2022/05/10 05:21:55;;;;;;;11.98;9.35;;;14.00;99.90;;;13.83;100.00;97719.56;5029929;28;20329;-45
2022/05/10 05:24:21;;;;;;;10.63;9.13;;;14.10;99.90;;;13.97;100.00;97724.25;5023680;28;20162;-46
2022/05/10 05:26:47;;;;;;;14.90;9.43;;;14.20;99.90;;;14.06;100.00;97717.66;5029925;28;20037;-48
2022/05/10 05:29:13;;;;;;;10.88;8.93;;;14.40;99.90;;;14.23;100.00;97719.53;5034395;28;20485;-50
2022/05/10 05:31:40;;;;;;;13.13;9.23;;;14.50;99.90;;;14.41;100.00;97710.72;5024407;28;20273;-49
2022/05/10 05:34:06;;;;;;;11.77;8.20;;;14.60;99.90;;;14.69;100.00;97720.88;5035399;28;20048;-45
2022/05/10 05:36:32;;;;;;;10.25;8.38;;;14.80;99.90;;;14.84;100.00;97723.72;5015824;28;20117;-48
2022/05/10 05:38:57;;;;;;;10.43;8.73;;;15.00;99.90;;;14.94;99.23;97724.16;5027492;28;20085;-49
2022/05/10 05:41:23;;;;;;;11.35;8.90;;;15.10;99.90;;;15.02;98.76;97725.50;5026696;28;20064;-49
2022/05/10 05:43:49;;;;;;;9.77;8.23;;;15.20;99.90;;;15.06;97.90;97708.47;5019669;28;20114;-45
2022/05/10 05:46:15;;;;;;;13.90;8.88;;;15.30;99.90;;;15.18;96.96;97719.41;5023820;28;20115;-47
2022/05/10 05:48:41;;;;;;;11.63;7.88;;;15.40;99.90;;;15.31;97.04;97727.59;5013375;28;20626;-45
2022/05/10 05:51:07;;;;;;;8.68;7.53;;;15.50;99.90;;;15.39;96.54;97736.91;5025688;28;20041;-46
2022/05/10 05:53:33;;;;;;;9.18;7.45;;;15.60;99.90;;;15.50;95.73;97730.19;5030139;28;20400;-46
2022/05/10 05:56:08;;;;;;;9.65;8.40;;;15.70;99.90;;;15.60;95.27;97726.97;5031767;28;20041;-48
2022/05/10 05:58:36;;;;;;;9.45;7.78;;;15.80;99.90;;;15.68;94.42;97728.38;5014342;28;20603;-47
2022/05/10 06:01:02;;;;;;;11.35;8.10;;;16.00;99.90;;;15.77;93.19;97731.47;5028861;28;20472;-46
2022/05/10 06:03:28;;;;;;;8.73;7.80;;;16.00;99.90;;;15.86;92.10;97731.91;5013236;28;20466;-45
2022/05/10 06:05:54;;;;;;;9.88;8.18;;;16.10;99.90;;;15.93;91.60;97738.63;5026566;28;20029;-46
2022/05/10 06:08:19;;;;;;;14.60;9.50;;;16.20;99.90;;;15.96;90.74;97733.13;5014140;28;20037;-46
2022/05/10 06:10:50;;;;;;;13.63;9.32;;;16.20;99.90;;;16.03;90.74;97734.53;5026155;28;20049;-47
2022/05/10 06:13:20;;;;;;;10.43;8.50;;;16.30;99.90;;;16.12;90.38;97739.34;5015870;28;20548;-48
2022/05/10 06:15:46;;;;;;;9.48;7.43;;;16.40;99.90;;;16.21;90.13;97728.19;5031606;28;20049;-49
2022/05/10 06:18:12;;;;;;;9.45;7.90;;;16.50;99.90;;;16.41;89.71;97732.41;5034412;28;20028;-46
2022/05/10 06:20:37;;;;;;;7.65;6.60;;;16.60;99.90;;;16.58;88.70;97744.81;5034527;28;20499;-47
2022/05/10 06:23:04;;;;;;;9.82;8.00;;;16.80;99.90;;;16.69;86.30;97730.91;5038137;28;20044;-46
2022/05/10 06:25:30;;;;;;;10.23;7.75;;;17.00;99.90;;;16.87;85.81;97741.47;5030275;28;20041;-47
2022/05/10 06:27:56;;;;;;;12.38;7.57;;;17.10;99.90;;;17.01;85.28;97740.69;5031084;28;20072;-46
2022/05/10 06:30:23;;;;;;;13.57;8.70;;;17.20;99.90;;;17.04;83.89;97737.84;5030524;28;20060;-48
2022/05/10 06:32:50;;;;;;;12.88;8.77;;;17.30;99.90;;;17.09;83.04;97735.78;5026279;28;22455;-47
2022/05/10 06:35:18;;;;;;;9.18;7.32;;;17.30;99.90;;;17.18;83.54;97735.25;5034078;28;20222;-47
2022/05/10 06:40:27;;;;;;;13.57;8.95;;;17.60;99.90;;;17.58;81.24;97738.22;5035419;28;20040;-48
2022/05/10 06:42:57;;;;;;;16.58;8.65;;;17.80;99.90;;;17.73;79.49;97742.63;5031870;28;20040;-45
2022/05/10 06:45:23;;;;;;;15.32;8.93;;;18.00;99.90;;;17.96;78.28;97736.88;5036609;28;20503;-47
2022/05/10 06:47:49;;;;;;;10.50;7.97;;;18.20;99.90;;;18.15;77.60;97739.28;5032719;28;20056;-48
2022/05/10 06:50:19;;;;;;;10.55;8.38;;;18.30;99.90;;;18.25;75.49;97735.94;5027124;28;20029;-50
2022/05/10 06:52:45;;;;;;;15.95;8.15;;;18.50;99.90;;;18.37;75.50;97736.94;5033228;28;20037;-48
2022/05/10 06:55:11;;;;;;;6.82;6.13;;;18.60;99.90;;;18.56;75.38;97736.66;5034942;28;20041;-47
2022/05/10 06:57:37;;;;;;;8.25;7.38;;;18.80;99.90;;;18.34;74.10;97667.75;5034559;28;20082;-47
2022/05/10 07:00:06;;;;;;;10.77;7.55;;;18.90;99.90;;;18.79;73.46;97737.84;5032500;28;20032;-48
2022/05/10 07:02:32;;;;;;;14.35;8.73;;;19.00;99.90;;;18.86;71.01;97735.63;5031152;28;20046;-47
2022/05/10 07:04:58;;;;;;;11.15;8.40;;;19.10;99.90;;;18.92;71.17;97737.06;5035992;28;20549;-49
2022/05/10 07:07:23;;;;;;;9.43;7.45;;;19.10;99.90;;;18.99;71.31;97733.88;5038156;28;20040;-48
2022/05/10 07:09:49;;;;;;;13.90;7.75;;;19.20;99.90;;;19.08;71.35;97738.63;5035877;28;20504;-47
2022/05/10 07:12:15;;;;;;;9.02;6.70;;;19.20;99.90;;;19.22;71.65;97732.38;5036804;28;20039;-49
2022/05/10 07:14:45;;;;;;;8.05;6.68;;;19.30;99.90;;;19.32;71.20;97724.56;5029614;28;20033;-46
2022/05/10 07:17:12;;;;;;;7.60;6.35;;;19.50;99.90;;;19.45;69.78;97729.94;5028700;28;20033;-46
2022/05/10 07:19:37;;;;;;;10.60;8.23;;;19.60;99.90;;;19.51;68.12;97728.69;5035144;28;20036;-48
2022/05/10 07:22:03;;;;;;;7.82;6.38;;;19.70;99.90;;;19.60;69.68;97722.72;5036132;28;20462;-47
2022/05/10 07:24:29;;;;;;;8.07;6.75;;;19.70;99.90;;;19.69;69.76;97721.22;5035630;28;20033;-49
2022/05/10 07:26:55;;;;;;;9.18;7.18;;;19.80;99.90;;;19.77;68.27;97721.56;5031631;28;20482;-48
2022/05/10 07:29:22;;;;;;;8.85;6.07;;;19.90;99.90;;;19.90;69.14;97725.13;5032717;28;20568;-45
2022/05/10 07:31:48;;;;;;;7.63;5.97;;;20.00;99.90;;;20.05;69.18;97727.69;5032969;28;20024;-48
2022/05/10 07:34:14;;;;;;;9.13;7.03;;;20.10;99.90;;;20.11;68.58;97727.25;5035352;28;20047;-46
2022/05/10 07:36:40;;;;;;;9.52;6.68;;;20.30;99.90;;;20.25;68.22;97724.44;5032364;28;20497;-48
2022/05/10 07:39:14;;;;;;;10.25;6.88;;;20.40;99.90;;;20.27;65.88;97727.88;5036068;28;20384;-46
2022/05/10 07:41:41;;;;;;;8.75;6.20;;;20.40;99.90;;;20.37;66.26;97723.56;5035400;28;20106;-47
2022/05/10 07:44:08;;;;;;;10.05;6.47;;;20.60;99.90;;;20.52;65.78;97732.31;5033859;28;20052;-45
2022/05/10 07:46:34;;;;;;;7.07;6.38;;;20.70;99.90;;;20.57;64.31;97726.66;5032508;28;20051;-48
2022/05/10 07:49:00;;;;;;;7.95;6.00;;;20.70;99.90;;;20.71;63.24;97725.66;5034946;28;20418;-48
2022/05/10 07:51:26;;;;;;;10.38;6.15;;;20.80;99.90;;;20.79;61.80;97724.13;5035251;28;20029;-47
2022/05/10 07:53:51;;;;;;;12.40;6.45;;;20.90;99.90;;;20.90;61.82;97730.53;5036935;28;20055;-48
2022/05/10 07:56:18;;;;;;;7.18;5.40;;;21.00;99.90;;;21.04;61.87;97724.16;5036035;28;20047;-46
2022/05/10 07:58:43;;;;;;;6.97;5.75;;;21.10;99.90;;;21.03;60.60;97717.06;5034970;28;20112;-48
2022/05/10 08:01:09;;;;;;;7.55;5.80;;;21.20;99.90;;;21.14;60.99;97726.03;5034650;28;20040;-48
2022/05/10 08:03:35;;;;;;;8.23;5.88;;;21.30;99.90;;;21.24;60.18;97728.03;5034795;28;20029;-49
2022/05/10 08:06:02;;;;;;;8.40;6.20;;;21.30;99.90;;;21.35;60.73;97718.19;5031666;28;20564;-48
2022/05/10 08:08:33;;;;;;;8.18;5.32;;;21.40;99.90;;;21.46;59.09;97720.09;5037199;28;20087;-49
2022/05/10 08:10:59;;;;;;;6.78;5.10;;;21.50;99.90;;;21.48;57.58;97731.56;5027570;28;20149;-45
2022/05/10 08:13:28;;;;;;;8.30;5.00;;;21.60;99.90;;;21.50;58.24;97724.25;5017946;28;20109;-47
2022/05/10 08:15:55;;;;;;;6.40;4.78;;;21.60;99.90;;;21.43;57.57;97720.28;5032630;28;20040;-46
2022/05/10 08:18:22;;;;;;;5.93;4.90;;;21.50;99.90;;;21.42;57.74;97718.56;5031869;28;20037;-44
2022/05/10 08:20:51;;;;;;;5.95;5.30;;;21.50;99.90;;;21.37;59.22;97718.06;5027106;28;20044;-46
2022/05/10 08:23:24;;;;;;;9.30;5.07;;;21.50;99.90;;;21.36;55.64;97719.06;5035484;28;20033;-47
2022/05/10 08:25:54;;;;;;;5.35;4.78;;;21.50;99.90;;;21.37;56.38;97707.34;5028682;28;20032;-48
2022/05/10 08:28:22;;;;;;;7.05;4.40;;;21.50;99.90;;;21.40;56.94;97719.66;5031076;28;20167;-48
2022/05/10 08:30:49;;;;;;;5.13;4.60;;;21.50;99.90;;;21.52;57.78;97727.66;5026145;28;20029;-48
2022/05/10 08:33:31;;;;;;;9.57;5.03;;;21.60;99.90;;;21.59;54.40;97722.69;5031112;28;20049;-46
2022/05/10 08:35:58;;;;;;;6.05;5.22;;;21.70;99.90;;;21.69;54.23;97717.47;5031960;28;20091;-46
2022/05/10 08:38:27;;;;;;;7.07;4.65;;;21.80;99.90;;;21.74;54.78;97716.13;5026436;28;20293;-45
2022/05/10 08:41:19;;;;;;;8.85;4.85;;;21.80;99.90;;;21.88;54.01;97712.38;5027174;28;20032;-45
2022/05/10 08:43:54;;;;;;;5.72;5.07;;;22.00;99.60;;;22.00;54.81;97707.88;5029698;28;20047;-49
2022/05/10 08:46:52;;;;;;;5.75;5.05;;;22.10;99.20;;;22.18;52.28;97707.38;5032456;28;20801;-50
2022/05/10 08:49:21;;;;;;;5.43;4.85;;;22.30;98.40;;;22.26;51.93;97704.97;5017524;28;20044;-46
2022/05/10 08:51:48;;;;;;;8.02;4.47;;;22.40;98.30;;;22.32;51.34;97698.28;5032219;28;20103;-45
2022/05/10 08:54:14;;;;;;;5.18;4.68;;;22.50;97.80;;;22.42;51.90;97708.16;5033403;28;20017;-46
2022/05/10 08:56:51;;;;;;;5.53;4.53;;;22.60;97.90;;;22.51;51.29;97705.72;5033191;28;20515;-46
2022/05/10 08:59:21;;;;;;;5.50;4.90;;;22.70;97.10;;;22.58;49.88;97705.09;5012366;28;20082;-42
2022/05/10 09:02:30;;;;;;;5.70;4.93;;;22.70;96.60;;;22.73;49.70;97699.44;5032159;28;20041;-46
2022/05/10 09:05:18;;;;;;;4.60;4.05;;;22.80;96.30;;;22.99;49.80;97698.16;5014151;28;20040;-45
2022/05/10 09:08:04;;;;;;;8.48;4.70;;;23.10;96.20;;;23.19;46.78;97703.75;5033009;28;20110;-42
2022/05/10 09:10:40;;;;;;;7.43;4.60;;;23.30;94.00;;;23.37;44.55;97693.25;5031707;28;20036;-46
2022/05/10 09:13:11;;;;;;;5.80;4.82;;;23.60;93.00;;;23.62;47.21;97702.78;5031319;28;20043;-45
2022/05/10 09:15:44;;;;;;;5.03;4.53;;;23.80;93.30;;;23.78;44.54;97697.78;5028250;28;20343;-47
2022/05/10 09:18:59;;;;;;;7.43;5.10;;;24.00;91.60;;;23.99;44.50;97696.94;5032614;28;20068;-47
2022/05/10 09:21:33;;;;;;;5.82;4.47;;;24.20;91.80;;;24.13;44.30;97698.44;5014199;28;20087;-46
2022/05/10 09:24:32;;;;;;;7.50;4.55;;;24.40;90.70;;;24.35;45.85;97692.00;5014002;28;20032;-44
2022/05/10 09:27:06;;;;;;;4.93;3.70;;;24.50;90.60;;;24.52;40.44;97699.44;5030730;28;20436;-47
2022/05/10 09:29:49;;;;;;;5.47;4.15;;;24.70;86.30;;;24.61;39.93;97695.09;5025718;28;20336;-48
2022/05/10 09:35:29;;;;;;;5.03;4.22;;;24.80;80.60;;;24.76;40.92;97690.16;5033078;28;20511;-47
2022/05/10 09:38:02;;;;;;;6.63;4.20;;;24.90;82.00;;;24.92;40.28;97689.63;5032816;28;20037;-48
2022/05/10 09:40:46;;;;;;;7.65;4.70;;;25.00;81.60;;;24.89;40.85;97689.91;5015030;28;20116;-47
2022/05/10 09:43:17;;;;;;;4.57;4.18;;;25.00;82.20;;;24.84;40.43;97690.31;5032796;28;20097;-44
2022/05/10 09:48:18;;;;;;;5.38;4.55;;;25.00;82.00;;;24.90;41.21;97687.06;5011133;28;20046;-53
2022/05/10 09:50:48;;;;;;;4.68;4.13;;;25.10;82.20;;;24.95;43.55;97681.25;5010351;28;20053;-52
2022/05/10 09:53:29;;;;;;;5.45;4.60;;;25.10;85.10;;;24.81;40.74;97682.50;5009497;28;20033;-52
2022/05/10 09:56:05;;;;;;;5.75;4.50;;;25.10;79.10;;;24.75;40.64;97683.06;4989195;28;20025;-52
2022/05/10 09:58:36;;;;;;;4.90;4.40;;;25.00;79.90;;;24.82;41.88;97669.88;5008423;28;20041;-53
2022/05/10 10:01:06;;;;;;;5.45;4.40;;;25.00;81.50;;;24.93;41.15;97672.47;4997599;28;20555;-52
2022/05/10 10:03:39;;;;;;;7.10;4.65;;;25.10;80.60;;;24.99;41.51;97671.03;4998674;28;20037;-51
2022/05/10 10:06:25;;;;;;;6.85;4.88;;;25.20;79.70;;;25.12;40.97;97668.91;4991000;28;20088;-50
2022/05/10 10:08:54;;;;;;;5.95;4.25;;;25.30;79.10;;;25.24;39.91;97667.81;4996928;28;20037;-52
2022/05/10 10:11:24;;;;;;;4.95;4.45;;;25.40;77.30;;;25.24;39.36;97670.50;5013341;28;20033;-51
2022/05/10 10:14:08;;;;;;;4.82;4.40;;;25.40;76.60;;;25.07;40.42;97660.38;5004442;28;20037;-51
2022/05/10 10:16:51;;;;;;;4.95;4.45;;;25.30;78.70;;;25.07;40.02;97660.38;5017845;28;20045;-52
2022/05/10 10:19:43;;;;;;;5.05;4.10;;;25.30;77.60;;;25.05;39.69;97660.53;4997673;28;20784;-52
2022/05/10 10:22:46;;;;;;;5.15;4.38;;;25.30;76.60;;;24.82;37.92;97657.25;5001936;28;20397;-49
2022/05/10 10:25:33;;;;;;;5.68;4.30;;;25.20;71.20;;;24.95;37.38;97663.22;4988718;28;20037;-51
2022/05/10 10:28:20;;;;;;;5.97;4.32;;;25.30;72.50;;;24.83;36.92;97664.34;5012816;28;20145;-49
2022/05/10 10:30:57;;;;;;;5.38;3.63;;;25.40;69.10;;;25.03;39.33;97667.06;4993910;28;20120;-50
2022/05/10 10:33:47;;;;;;;5.07;3.90;;;25.30;73.40;;;25.06;39.07;97658.69;5010197;28;20029;-52
2022/05/10 10:36:23;;;;;;;4.65;4.10;;;25.30;72.70;;;24.80;37.46;97664.63;4997963;28;20450;-49
2022/05/10 10:39:02;;;;;;;7.75;3.75;;;25.20;69.60;;;24.62;37.89;97658.19;5009144;28;21479;-50
2022/05/10 10:41:47;;;;;;;5.75;4.25;;;24.90;70.70;;;24.48;37.58;97662.97;5003612;28;20025;-50
2022/05/10 10:44:34;;;;;;;4.10;3.70;;;24.80;69.10;;;24.60;39.17;97660.19;5002618;28;20078;-53
2022/05/10 10:47:22;;;;;;;4.10;3.70;;;24.70;72.50;;;24.87;39.52;97654.13;4990029;28;20033;-54
2022/05/10 10:50:14;;;;;;;4.20;3.80;;;24.90;72.90;;;25.07;36.37;97650.47;5000078;28;20029;-51
2022/05/10 10:52:40;;;;;;;5.15;3.60;;;25.10;68.00;;;25.29;39.13;97643.94;5001242;28;20038;-50